Time;durP1;ratioP1;P1;durP2;ratioP2;P2;SDS_P1;SDS_P2;PMS_P1;PMS_P2;Temp;Humidity;BMP_temperature;BMP_pressure;BME280_temperature;BME280_humidity;BME280_pressure;Samples;Min_cycle;Max_cycle;Signal;HPM_P1;HPM_P2
2021/08/13 00:01:47;;;;;;;5.20;2.35;;;;;;;;;;4114499;28;20037;-52
2021/08/13 00:03:49;;;;;;;4.20;2.20;;;;;;;;;;4113943;28;20183;-53
2021/08/13 00:05:51;;;;;;;3.17;2.05;;;;;;;;;;4113386;28;20041;-51
2021/08/13 00:07:53;;;;;;;3.67;1.83;;;;;;;;;;4111816;28;20691;-52
2021/08/13 00:09:55;;;;;;;4.72;2.30;;;;;;;;;;4113059;28;20045;-49
2021/08/13 00:11:57;;;;;;;4.28;2.65;;;;;;;;;;4113426;28;20503;-50
2021/08/13 00:13:59;;;;;;;4.38;2.67;;;;;;;;;;4112690;28;20038;-50
2021/08/13 00:16:01;;;;;;;3.75;2.92;;;;;;;;;;4116898;28;20026;-51
2021/08/13 00:18:03;;;;;;;3.67;2.80;;;;;;;;;;4116092;28;20389;-49
2021/08/13 00:20:06;;;;;;;4.97;3.35;;;;;;;;;;4116689;28;20034;-52
2021/08/13 00:22:08;;;;;;;5.37;3.50;;;;;;;;;;4116670;28;20041;-48
2021/08/13 00:24:10;;;;;;;5.55;3.08;;;;;;;;;;4113400;28;20045;-51
2021/08/13 00:26:12;;;;;;;7.82;3.95;;;;;;;;;;4114596;28;20018;-54
2021/08/13 00:28:14;;;;;;;5.70;4.07;;;;;;;;;;4116566;28;20110;-53
2021/08/13 00:30:16;;;;;;;5.53;3.78;;;;;;;;;;4116357;28;20406;-49
2021/08/13 00:32:18;;;;;;;6.18;4.65;;;;;;;;;;4116764;28;21388;-52
2021/08/13 00:34:20;;;;;;;5.35;3.78;;;;;;;;;;4115120;28;20470;-51
2021/08/13 00:36:29;;;;;;;5.70;4.05;;;;;;;;;;4116878;28;20519;-54
2021/08/13 00:38:31;;;;;;;7.90;4.40;;;;;;;;;;4117815;28;20286;-54
2021/08/13 00:40:33;;;;;;;8.15;4.15;;;;;;;;;;4113350;28;20460;-50
2021/08/13 00:42:35;;;;;;;7.22;4.47;;;;;;;;;;4111770;28;20030;-51
2021/08/13 00:44:37;;;;;;;7.30;4.50;;;;;;;;;;4114491;28;20109;-53
2021/08/13 00:46:39;;;;;;;7.50;5.30;;;;;;;;;;4115844;28;20080;-48
2021/08/13 00:48:41;;;;;;;8.57;6.07;;;;;;;;;;4115952;28;20372;-48
2021/08/13 00:50:43;;;;;;;10.18;6.32;;;;;;;;;;4116540;28;20100;-51
2021/08/13 00:52:45;;;;;;;9.02;4.90;;;;;;;;;;4114861;28;20041;-51
2021/08/13 00:54:47;;;;;;;7.47;4.57;;;;;;;;;;4127405;28;20053;-46
2021/08/13 00:56:50;;;;;;;6.13;4.40;;;;;;;;;;4133525;28;20033;-50
2021/08/13 00:58:52;;;;;;;5.75;4.43;;;19.80;50.30;;;;;;4134287;28;20131;-46
2021/08/13 01:00:55;;;;;;;9.30;5.00;;;18.30;51.40;;;;;;4133455;28;20668;-48
2021/08/13 01:02:57;;;;;;;5.47;4.63;;;18.70;50.20;;;;;;4134213;28;20025;-52
2021/08/13 01:04:59;;;;;;;7.40;4.75;;;;;;;;;;4132300;28;20538;-50
2021/08/13 01:07:07;;;;;;;5.78;5.07;;;;;;;;;;4133404;28;20522;-53
2021/08/13 01:09:10;;;;;;;7.93;5.10;;;;;;;;;;4133634;28;20030;-46
2021/08/13 01:11:24;;;;;;;7.22;5.60;;;;;;;;;;4132166;28;20069;-52
2021/08/13 01:13:32;;;;;;;8.00;5.72;;;;;;;;;;4131945;28;20033;-50
2021/08/13 01:15:36;;;;;;;7.97;5.50;;;;;;;;;;4135980;28;20083;-51
2021/08/13 01:17:50;;;;;;;8.10;5.82;;;19.20;49.30;;;;;;4133388;28;20116;-52
2021/08/13 01:19:56;;;;;;;7.50;5.78;;;21.90;44.80;;;;;;4134050;28;20037;-51
2021/08/13 01:22:22;;;;;;;7.55;5.80;;;22.20;44.20;;;;;;4132736;28;20245;-49
2021/08/13 01:24:27;;;;;;;7.43;5.60;;;22.50;43.60;;;;;;4129685;28;20083;-50
2021/08/13 01:26:36;;;;;;;7.28;5.35;;;22.80;43.10;;;;;;4132252;28;20038;-51
2021/08/13 01:29:03;;;;;;;7.13;5.95;;;23.10;43.00;;;;;;4131393;28;20401;-45
2021/08/13 01:31:23;;;;;;;8.18;6.05;;;23.30;42.60;;;;;;4130858;28;20832;-52
2021/08/13 01:33:25;;;;;;;7.13;5.97;;;23.60;42.20;;;;;;4133273;28;20125;-54
2021/08/13 01:35:33;;;;;;;6.03;5.23;;;23.80;42.00;;;;;;4133380;28;20091;-52
2021/08/13 01:37:38;;;;;;;6.85;5.80;;;24.00;41.70;;;;;;4133149;28;20275;-52
2021/08/13 01:39:45;;;;;;;6.55;5.10;;;24.20;41.40;;;;;;4120458;28;20065;-54
2021/08/13 01:41:48;;;;;;;5.72;4.97;;;24.40;41.10;;;;;;4131898;28;20360;-53
2021/08/13 01:43:50;;;;;;;;;;;24.70;40.70;;;;;;4131479;28;20038;-52
2021/08/13 01:45:53;;;;;;;6.05;4.72;;;24.90;40.50;;;;;;4133296;28;19916;-49
2021/08/13 01:47:56;;;;;;;6.90;4.53;;;25.10;40.00;;;;;;4128719;28;20036;-50
2021/08/13 01:49:58;;;;;;;5.60;4.20;;;25.30;40.00;;;;;;4132699;28;20049;-54
2021/08/13 01:52:01;;;;;;;5.07;3.65;;;25.50;39.80;;;;;;4131644;28;20029;-50
2021/08/13 01:54:04;;;;;;;5.45;3.70;;;25.60;39.60;;;;;;4132885;28;20059;-50
2021/08/13 01:56:07;;;;;;;4.22;3.22;;;25.80;39.20;;;;;;4130190;28;20030;-51
2021/08/13 01:58:10;;;;;;;4.60;3.47;;;25.90;39.20;;;;;;4131000;28;20026;-50
2021/08/13 02:00:16;;;;;;;7.38;3.05;;;26.10;38.90;;;;;;4131977;28;20303;-52
2021/08/13 02:02:19;;;;;;;4.72;2.78;;;26.20;38.60;;;;;;4130514;28;20140;-50
2021/08/13 02:04:21;;;;;;;4.50;2.40;;;26.40;38.30;;;;;;4131176;28;20373;-47
2021/08/13 02:06:24;;;;;;;4.35;2.67;;;26.60;38.00;;;;;;4132837;28;20037;-49
2021/08/13 02:08:27;;;;;;;3.90;2.25;;;26.50;37.10;;;;;;4132750;28;20022;-54
2021/08/13 02:10:30;;;;;;;4.05;2.17;;;26.10;37.80;;;;;;4131440;28;20168;-51
2021/08/13 02:12:32;;;;;;;4.40;2.40;;;25.80;37.70;;;;;;4129738;28;20033;-51
2021/08/13 02:14:35;;;;;;;3.53;2.47;;;25.50;38.20;;;;;;4125976;28;20044;-53
2021/08/13 02:16:39;;;;;;;3.00;1.90;;;25.20;38.70;;;;;;4130598;28;20645;-51
2021/08/13 02:18:49;;;;;;;2.95;1.90;;;24.90;38.90;;;;;;4132894;28;20565;-53
2021/08/13 02:20:56;;;;;;;2.83;1.95;;;24.70;39.30;;;;;;4128456;28;20112;-52
2021/08/13 02:22:58;;;;;;;2.78;1.65;;;24.40;39.70;;;;;;4129937;28;20527;-50
2021/08/13 02:25:02;;;;;;;2.42;1.52;;;24.30;39.90;;;;;;4129232;28;20784;-50
2021/08/13 02:27:04;;;;;;;2.38;1.63;;;24.10;40.10;;;;;;4127500;28;20486;-50
2021/08/13 02:29:06;;;;;;;2.08;1.38;;;24.00;41.00;;;;;;4130210;28;20923;-48
2021/08/13 02:31:08;;;;;;;2.27;1.60;;;23.80;40.50;;;;;;4130395;28;20065;-51
2021/08/13 02:33:11;;;;;;;2.45;1.40;;;23.70;40.80;;;;;;4125624;28;20715;-49
2021/08/13 02:35:13;;;;;;;2.83;1.45;;;;;;;;;;4127979;28;20125;-53
2021/08/13 02:37:19;;;;;;;1.80;1.17;;;;;;;;;;4128780;28;20066;-45
2021/08/13 02:39:30;;;;;;;2.55;1.00;;;23.60;41.20;;;;;;4132262;28;20033;-51
2021/08/13 02:41:34;;;;;;;1.30;0.88;;;23.20;41.80;;;;;;4129421;28;20075;-50
2021/08/13 02:43:52;;;;;;;1.60;1.02;;;23.10;41.90;;;;;;4131129;28;20038;-48
2021/08/13 02:46:01;;;;;;;1.85;1.00;;;23.00;41.70;;;;;;4128123;28;20108;-51
2021/08/13 02:48:05;;;;;;;2.35;1.52;;;22.90;41.80;;;;;;4127547;28;20465;-53
2021/08/13 02:50:09;;;;;;;2.22;1.30;;;22.80;41.80;;;;;;4129217;28;20046;-52
2021/08/13 02:52:13;;;;;;;2.25;1.10;;;22.70;42.10;;;;;;4125907;28;20029;-51
2021/08/13 02:54:25;;;;;;;1.20;0.80;;;22.60;42.20;;;;;;4125907;28;20119;-52
2021/08/13 02:56:33;;;;;;;0.88;0.80;;;22.60;42.40;;;;;;4114209;28;20052;-54
2021/08/13 02:58:42;;;;;;;1.92;1.10;;;22.50;43.00;;;;;;4110303;28;21111;-54
2021/08/13 03:00:46;;;;;;;1.20;0.85;;;22.50;42.70;;;;;;4113252;28;20040;-52
2021/08/13 03:02:54;;;;;;;1.70;0.80;;;22.40;42.60;;;;;;4115760;28;20830;-49
2021/08/13 03:04:57;;;;;;;1.67;0.90;;;22.40;42.90;;;;;;4111002;28;20045;-49
2021/08/13 03:06:59;;;;;;;;;;;22.30;43.00;;;;;;4110812;28;20148;-51
2021/08/13 03:09:01;;;;;;;1.08;0.70;;;22.20;43.00;;;;;;4111007;28;21313;-53
2021/08/13 03:11:05;;;;;;;1.40;0.87;;;22.20;42.90;;;;;;4112436;28;20034;-50
2021/08/13 03:13:08;;;;;;;1.77;0.70;;;22.10;43.00;;;;;;4111836;28;20120;-52
2021/08/13 03:15:11;;;;;;;1.15;0.70;;;22.10;43.00;;;;;;4111258;28;20155;-50
2021/08/13 03:17:13;;;;;;;1.15;0.73;;;22.00;43.80;;;;;;4112988;28;20041;-52
2021/08/13 03:19:16;;;;;;;1.70;0.90;;;22.00;43.30;;;;;;4112561;28;20096;-48
2021/08/13 03:21:19;;;;;;;1.27;1.00;;;22.00;43.40;;;;;;4113431;28;20105;-48
2021/08/13 03:23:21;;;;;;;1.08;0.77;;;21.90;43.40;;;;;;4106240;28;20037;-54
2021/08/13 03:25:24;;;;;;;1.45;0.75;;;21.90;43.80;;;;;;4114428;28;20144;-53
2021/08/13 03:27:26;;;;;;;1.13;0.63;;;21.90;43.80;;;;;;4112436;28;20059;-51
2021/08/13 03:29:29;;;;;;;0.85;0.70;;;21.90;43.90;;;;;;4114008;28;21396;-50
2021/08/13 03:31:44;;;;;;;1.30;0.55;;;21.80;44.10;;;;;;4112142;28;20030;-48
2021/08/13 03:33:46;;;;;;;2.40;0.70;;;21.80;44.00;;;;;;4108252;28;20030;-51
2021/08/13 03:35:50;;;;;;;2.65;0.90;;;21.80;44.00;;;;;;4116262;28;21009;-52
2021/08/13 03:37:52;;;;;;;1.25;0.80;;;21.80;43.60;;;;;;4111577;28;20424;-49
2021/08/13 03:39:54;;;;;;;1.58;0.98;;;21.70;43.80;;;;;;4110930;28;20666;-51
2021/08/13 03:41:56;;;;;;;1.88;0.70;;;21.70;43.90;;;;;;4112224;28;20050;-53
2021/08/13 03:43:58;;;;;;;1.13;0.70;;;21.70;44.20;;;;;;4110919;28;20499;-54
2021/08/13 03:46:00;;;;;;;0.90;0.75;;;21.70;44.20;;;;;;4113292;28;20028;-50
2021/08/13 03:48:02;;;;;;;1.33;0.80;;;21.70;44.20;;;;;;4114482;28;20041;-52
2021/08/13 03:50:05;;;;;;;1.50;0.70;;;21.70;44.30;;;;;;4118772;28;20145;-52
2021/08/13 03:52:07;;;;;;;1.07;0.60;;;21.70;44.50;;;;;;4115670;28;20651;-52
2021/08/13 03:54:10;;;;;;;1.15;0.80;;;21.70;44.60;;;;;;4124760;28;20363;-51
2021/08/13 03:56:13;;;;;;;1.45;0.82;;;21.70;44.40;;;;;;4134982;28;20064;-51
2021/08/13 03:58:15;;;;;;;0.80;0.63;;;21.70;44.50;;;;;;4131854;28;20045;-51
2021/08/13 04:00:18;;;;;;;1.13;0.82;;;21.70;44.60;;;;;;4130556;28;20492;-50
2021/08/13 04:02:20;;;;;;;2.53;0.70;;;21.70;44.70;;;;;;4132367;28;20132;-55
2021/08/13 04:04:22;;;;;;;0.95;0.70;;;21.70;44.70;;;;;;4138572;28;20297;-53
2021/08/13 04:06:25;;;;;;;3.50;0.70;;;21.70;44.70;;;;;;4134315;28;20033;-55
2021/08/13 04:08:27;;;;;;;1.83;0.70;;;21.70;44.70;;;;;;4136888;28;20029;-48
2021/08/13 04:10:30;;;;;;;7.25;0.90;;;21.70;44.80;;;;;;4142436;28;20260;-54
2021/08/13 04:12:32;;;;;;;1.03;0.57;;;21.70;44.90;;;;;;4138233;28;20053;-56
2021/08/13 04:14:34;;;;;;;0.93;0.73;;;21.70;44.90;;;;;;4142280;28;20033;-51
2021/08/13 04:16:36;;;;;;;0.75;0.60;;;21.80;45.00;;;;;;4133920;28;20068;-52
2021/08/13 04:18:38;;;;;;;1.52;0.50;;;21.80;44.90;;;;;;4134186;28;20041;-51
2021/08/13 04:20:40;;;;;;;0.63;0.55;;;21.80;44.90;;;;;;4130785;28;20083;-56
2021/08/13 04:22:42;;;;;;;0.93;0.70;;;21.80;44.80;;;;;;4132023;28;20041;-55
2021/08/13 04:24:44;;;;;;;1.75;0.60;;;21.90;44.80;;;;;;4130253;28;20017;-53
2021/08/13 04:26:46;;;;;;;2.13;0.57;;;21.90;44.80;;;;;;4133180;28;20084;-51
2021/08/13 04:28:48;;;;;;;2.03;0.70;;;21.90;44.80;;;;;;4134853;28;20130;-52
2021/08/13 04:30:51;;;;;;;1.15;0.50;;;22.00;44.90;;;;;;4132809;28;20540;-50
2021/08/13 04:32:53;;;;;;;0.95;0.55;;;22.00;44.80;;;;;;4133139;28;20057;-55
2021/08/13 04:34:55;;;;;;;3.65;0.60;;;22.00;44.60;;;;;;4132097;28;20044;-54
2021/08/13 04:36:57;;;;;;;0.57;0.50;;;22.00;44.70;;;;;;4130808;28;20387;-55
2021/08/13 04:38:59;;;;;;;0.52;0.52;;;22.10;44.70;;;;;;4133600;28;20115;-52
2021/08/13 04:41:01;;;;;;;0.70;0.60;;;22.10;44.70;;;;;;4134272;28;20116;-52
2021/08/13 04:43:03;;;;;;;0.50;0.50;;;22.10;44.60;;;;;;4130027;28;20029;-48
2021/08/13 04:45:06;;;;;;;0.75;0.55;;;22.10;44.60;;;;;;4129626;28;20457;-53
2021/08/13 04:47:08;;;;;;;1.13;0.70;;;22.20;44.60;;;;;;4112117;28;21590;-51
2021/08/13 04:49:10;;;;;;;0.47;0.40;;;22.20;44.50;;;;;;4131077;28;20030;-54
2021/08/13 04:51:12;;;;;;;2.38;0.40;;;22.30;44.50;;;;;;4129923;28;20487;-54
2021/08/13 04:53:18;;;;;;;1.17;0.77;;;22.30;44.30;;;;;;4133977;28;20025;-53
2021/08/13 04:55:23;;;;;;;9.82;0.70;;;22.40;44.30;;;;;;4118964;28;20582;-50
2021/08/13 04:57:26;;;;;;;0.63;0.63;;;22.40;44.20;;;;;;4112941;28;20114;-49
2021/08/13 04:59:28;;;;;;;0.45;0.43;;;22.50;44.20;;;;;;4116478;28;20162;-53
2021/08/13 05:01:30;;;;;;;0.40;0.40;;;22.50;44.00;;;;;;4112020;28;20440;-48
2021/08/13 05:03:32;;;;;;;0.73;0.52;;;22.50;43.90;;;;;;4113311;28;20041;-53
2021/08/13 05:05:35;;;;;;;0.65;0.52;;;22.60;44.10;;;;;;4115945;28;20077;-54
2021/08/13 05:07:37;;;;;;;0.55;0.52;;;22.60;44.00;;;;;;4114501;28;20034;-52
2021/08/13 05:09:39;;;;;;;1.95;0.60;;;22.60;43.90;;;;;;4111155;28;21464;-53
2021/08/13 05:11:41;;;;;;;0.80;0.50;;;22.60;43.80;;;;;;4114757;28;20408;-52
2021/08/13 05:13:44;;;;;;;0.30;0.30;;;22.60;43.50;;;;;;4117383;28;20514;-51
2021/08/13 05:15:46;;;;;;;2.65;0.73;;;22.60;43.60;;;;;;4115742;28;20034;-51
2021/08/13 05:17:48;;;;;;;0.68;0.50;;;22.60;43.80;;;;;;4115150;28;20035;-51
2021/08/13 05:19:50;;;;;;;1.23;0.40;;;22.60;43.80;;;;;;4111387;28;20053;-55
2021/08/13 05:21:52;;;;;;;1.20;0.63;;;22.60;43.70;;;;;;4112287;28;20128;-51
2021/08/13 05:23:54;;;;;;;0.68;0.43;;;22.70;43.70;;;;;;4115503;28;20034;-52
2021/08/13 05:25:59;;;;;;;1.35;0.60;;;22.70;43.90;;;;;;4114619;28;20038;-53
2021/08/13 05:28:01;;;;;;;1.13;0.77;;;22.70;43.90;;;;;;4117774;28;20033;-49
2021/08/13 05:30:05;;;;;;;0.70;0.50;;;22.70;44.00;;;;;;4110614;28;20050;-53
2021/08/13 05:32:07;;;;;;;0.70;0.52;;;22.70;43.90;;;;;;4097621;28;20562;-50
2021/08/13 05:34:10;;;;;;;1.02;0.50;;;22.70;43.90;;;;;;4115625;28;20754;-51
2021/08/13 05:36:15;;;;;;;1.40;0.63;;;22.70;43.90;;;;;;4110758;28;20061;-51
2021/08/13 05:38:17;;;;;;;4.50;0.55;;;22.80;44.10;;;;;;4110436;28;20122;-50
2021/08/13 05:40:19;;;;;;;2.90;0.65;;;22.80;44.00;;;;;;4099802;28;20037;-51
2021/08/13 05:42:22;;;;;;;2.28;0.85;;;22.80;44.20;;;;;;4111931;28;20069;-49
2021/08/13 05:44:24;;;;;;;1.08;0.60;;;22.80;44.10;;;;;;4110444;28;20026;-50
2021/08/13 05:46:26;;;;;;;2.35;0.55;;;22.70;44.00;;;;;;4116394;28;20037;-48
2021/08/13 05:48:28;;;;;;;1.23;0.60;;;22.70;44.20;;;;;;4112531;28;20908;-52
2021/08/13 05:50:30;;;;;;;0.82;0.60;;;22.70;44.20;;;;;;4115556;28;20042;-51
2021/08/13 05:52:32;;;;;;;1.25;1.15;;;22.60;44.30;;;;;;4114644;28;20038;-51
2021/08/13 05:54:34;;;;;;;4.13;2.30;;;22.60;44.60;;;;;;4115504;28;20395;-50
2021/08/13 05:56:36;;;;;;;4.10;3.80;;;22.50;44.30;;;;;;4117142;28;20051;-54
2021/08/13 05:58:38;;;;;;;6.43;5.93;;;22.50;44.30;;;;;;4113771;28;20488;-54
2021/08/13 06:00:40;;;;;;;8.60;8.00;;;22.50;44.60;;;;;;4112603;28;20346;-55
2021/08/13 06:03:11;;;;;;;20.42;19.08;;;22.40;45.50;;;;;;4113689;28;20485;-53
2021/08/13 06:05:13;;;;;;;20.42;19.23;;;22.40;44.60;;;;;;4105572;28;20058;-56
2021/08/13 06:07:16;;;;;;;59.35;55.80;;;22.40;44.60;;;;;;4114427;28;20065;-57
2021/08/13 06:09:18;;;;;;;64.88;60.92;;;22.30;43.80;;;;;;4110024;28;20616;-59
2021/08/13 06:11:20;;;;;;;61.97;58.42;;;22.30;43.90;;;;;;4115248;28;20399;-57
2021/08/13 06:13:22;;;;;;;61.30;57.70;;;22.20;44.90;;;;;;4112758;28;20030;-58
2021/08/13 06:15:24;;;;;;;66.30;62.42;;;22.20;44.40;;;;;;4114813;28;20036;-55
2021/08/13 06:17:26;;;;;;;62.42;58.83;;;22.20;44.60;;;;;;4114441;28;20632;-56
2021/08/13 06:19:28;;;;;;;69.28;65.25;;;22.20;44.60;;;;;;4117570;28;20037;-53
2021/08/13 06:21:31;;;;;;;69.55;65.55;;;22.20;44.80;;;;;;4112646;28;20080;-49
2021/08/13 06:23:33;;;;;;;71.60;67.57;;;22.20;44.60;;;;;;4114553;28;20097;-51
2021/08/13 06:25:35;;;;;;;69.60;65.68;;;22.20;45.10;;;;;;4114231;28;20117;-50
2021/08/13 06:27:45;;;;;;;66.78;63.08;;;22.20;44.80;;;;;;4113233;28;20034;-54
2021/08/13 06:29:47;;;;;;;67.60;63.65;;;22.10;45.00;;;;;;4110422;28;20989;-54
2021/08/13 06:31:49;;;;;;;66.03;62.22;;;22.20;46.00;;;;;;4109773;28;20127;-54
2021/08/13 06:33:51;;;;;;;64.47;60.80;;;22.20;45.50;;;;;;4114624;28;20535;-55
2021/08/13 06:35:54;;;;;;;67.65;63.75;;;22.20;45.50;;;;;;4114651;28;20072;-53
2021/08/13 06:37:57;;;;;;;63.28;59.78;;;22.20;45.90;;;;;;4110088;28;20562;-54
2021/08/13 06:39:59;;;;;;;63.72;60.13;;;22.10;45.80;;;;;;4112987;28;20034;-53
2021/08/13 06:42:01;;;;;;;61.45;57.95;;;22.20;45.90;;;;;;4113614;28;20033;-55
2021/08/13 06:44:03;;;;;;;59.60;56.10;;;22.20;46.00;;;;;;4113370;28;20046;-54
2021/08/13 06:46:05;;;;;;;57.85;54.63;;;22.10;45.90;;;;;;4113617;28;20100;-54
2021/08/13 06:48:07;;;;;;;58.40;55.10;;;22.10;46.00;;;;;;4114795;28;20790;-54
2021/08/13 06:50:10;;;;;;;54.65;51.45;;;22.10;46.00;;;;;;4115596;28;20151;-54
2021/08/13 06:52:12;;;;;;;;;;;22.10;45.70;;;;;;4112578;28;20109;-55
2021/08/13 06:54:14;;;;;;;57.85;54.70;;;22.10;45.60;;;;;;4102431;28;20250;-54
2021/08/13 06:56:16;;;;;;;52.13;49.22;;;22.10;45.90;;;;;;4127638;28;20038;-55
2021/08/13 06:58:18;;;;;;;50.78;47.95;;;22.00;45.90;;;;;;4131120;28;20072;-52
2021/08/13 07:00:24;;;;;;;53.28;50.20;;;22.00;45.90;;;;;;4119277;28;20042;-59
2021/08/13 07:02:26;;;;;;;49.25;46.25;;;22.00;46.50;;;;;;4131371;28;20108;-51
2021/08/13 07:04:28;;;;;;;48.97;46.17;;;22.00;46.00;;;;;;4129777;28;20034;-56
2021/08/13 07:06:30;;;;;;;47.78;45.15;;;22.00;46.20;;;;;;4129507;28;20348;-49
2021/08/13 07:08:32;;;;;;;48.33;45.20;;;22.00;46.20;;;;;;4126863;28;20878;-51
2021/08/13 07:10:34;;;;;;;46.05;43.22;;;22.00;46.20;;;;;;4129141;28;20950;-51
2021/08/13 07:12:37;;;;;;;42.90;40.40;;;22.00;46.30;;;;;;4127082;28;20056;-54
2021/08/13 07:14:39;;;;;;;44.38;41.72;;;21.90;46.40;;;;;;4130996;28;20037;-53
2021/08/13 07:16:41;;;;;;;37.50;35.38;;;21.90;46.30;;;;;;4130132;28;20630;-52
2021/08/13 07:18:43;;;;;;;38.35;36.15;;;21.90;46.20;;;;;;4130497;28;20117;-53
2021/08/13 07:20:45;;;;;;;37.92;35.42;;;21.90;46.30;;;;;;4131602;28;20290;-50
2021/08/13 07:22:48;;;;;;;35.88;33.78;;;21.90;46.20;;;;;;4130705;28;20125;-51
2021/08/13 07:24:50;;;;;;;38.20;36.03;;;21.90;46.10;;;;;;4137173;28;20221;-50
2021/08/13 07:26:52;;;;;;;35.83;33.72;;;21.90;46.10;;;;;;4134315;28;20106;-52
2021/08/13 07:28:54;;;;;;;35.83;33.80;;;21.80;45.90;;;;;;4132302;28;20022;-51
2021/08/13 07:30:56;;;;;;;30.52;28.83;;;21.80;45.90;;;;;;4128686;28;20033;-52
2021/08/13 07:32:58;;;;;;;35.20;33.00;;;21.80;45.80;;;;;;4132546;28;20033;-51
2021/08/13 07:35:00;;;;;;;34.20;31.80;;;21.80;45.80;;;;;;4131885;28;20374;-55
2021/08/13 07:37:02;;;;;;;32.85;30.88;;;21.70;45.70;;;;;;4134251;28;20583;-53
2021/08/13 07:39:05;;;;;;;30.35;28.55;;;21.70;45.70;;;;;;4134167;28;20323;-54
2021/08/13 07:41:11;;;;;;;30.80;28.92;;;21.70;45.70;;;;;;4136191;28;20309;-52
2021/08/13 07:43:14;;;;;;;28.55;26.75;;;21.60;45.60;;;;;;4132995;28;20026;-50
2021/08/13 07:45:16;;;;;;;24.63;23.23;;;21.60;45.60;;;;;;4134671;28;20060;-56
2021/08/13 07:47:18;;;;;;;24.87;23.33;;;21.60;45.50;;;;;;4132265;28;20801;-54
2021/08/13 07:49:20;;;;;;;23.80;22.35;;;21.60;45.50;;;;;;4133800;28;20025;-56
2021/08/13 07:51:22;;;;;;;19.40;18.10;;;21.60;45.50;;;;;;4129195;28;20064;-58
2021/08/13 07:53:24;;;;;;;21.63;20.33;;;21.50;45.40;;;;;;4129838;28;20029;-54
2021/08/13 07:55:27;;;;;;;20.50;19.20;;;21.50;45.50;;;;;;4123108;28;20054;-56
2021/08/13 07:57:29;;;;;;;21.58;19.75;;;21.50;45.60;;;;;;4114456;28;20034;-53
2021/08/13 07:59:33;;;;;;;19.05;17.85;;;21.50;45.70;;;;;;4115349;28;20045;-53
2021/08/13 08:01:35;;;;;;;19.20;18.00;;;21.50;46.00;;;;;;4111027;28;20038;-56
2021/08/13 08:03:44;;;;;;;18.15;16.95;;;21.50;46.20;;;;;;4110596;28;20038;-56
2021/08/13 08:05:46;;;;;;;18.10;16.85;;;21.50;46.70;;;;;;4112665;28;20136;-55
2021/08/13 08:07:48;;;;;;;17.52;16.33;;;21.40;46.50;;;;;;4112039;28;20525;-54
2021/08/13 08:09:50;;;;;;;17.50;16.25;;;21.50;47.30;;;;;;4113325;28;20112;-54
2021/08/13 08:11:53;;;;;;;16.60;15.50;;;21.40;46.80;;;;;;4110936;28;20389;-51
2021/08/13 08:13:55;;;;;;;14.75;13.80;;;21.40;46.80;;;;;;4110366;28;20443;-52
2021/08/13 08:15:57;;;;;;;14.55;13.48;;;21.40;46.80;;;;;;4113417;28;20423;-55
2021/08/13 08:17:59;;;;;;;13.88;12.88;;;21.40;46.90;;;;;;4112175;28;20095;-52
2021/08/13 08:20:02;;;;;;;12.80;12.00;;;21.40;47.00;;;;;;4112539;28;20124;-57
2021/08/13 08:22:05;;;;;;;14.15;13.18;;;21.40;47.00;;;;;;4110095;28;20034;-56
2021/08/13 08:24:07;;;;;;;13.90;12.07;;;21.40;47.20;;;;;;4112392;28;20141;-57
2021/08/13 08:26:09;;;;;;;12.20;11.25;;;21.40;47.50;;;;;;4115529;28;20204;-59
2021/08/13 08:28:11;;;;;;;11.55;10.65;;;21.40;47.40;;;;;;4110836;28;20136;-58
2021/08/13 08:30:14;;;;;;;11.00;10.20;;;21.40;47.40;;;;;;4113064;28;20073;-57
2021/08/13 08:32:16;;;;;;;11.05;10.15;;;21.40;47.40;;;;;;4111581;28;20802;-59
2021/08/13 08:34:18;;;;;;;11.00;10.07;;;21.30;47.40;;;;;;4109460;28;20076;-60
2021/08/13 08:36:20;;;;;;;10.32;9.45;;;21.40;47.40;;;;;;4112985;28;20035;-59
2021/08/13 08:38:23;;;;;;;9.73;8.93;;;21.30;47.40;;;;;;4115404;28;20049;-59
2021/08/13 08:40:38;;;;;;;9.80;9.00;;;21.30;47.60;;;;;;4116251;28;20503;-59
2021/08/13 08:42:45;;;;;;;8.90;8.25;;;21.30;47.60;;;;;;4113615;28;20065;-61
2021/08/13 08:44:49;;;;;;;8.95;8.35;;;21.30;47.50;;;;;;4115725;28;20034;-59
2021/08/13 08:46:51;;;;;;;8.85;8.15;;;21.30;47.60;;;;;;4113340;28;20458;-59
2021/08/13 08:48:55;;;;;;;9.32;7.97;;;21.30;47.60;;;;;;4115429;28;20527;-58
2021/08/13 08:50:58;;;;;;;8.73;8.02;;;21.30;47.80;;;;;;4113488;28;20094;-59
2021/08/13 08:53:03;;;;;;;8.32;7.60;;;21.20;47.60;;;;;;4114983;28;20073;-56
2021/08/13 08:55:08;;;;;;;8.68;6.75;;;21.20;47.70;;;;;;4116340;28;20612;-57
2021/08/13 08:57:11;;;;;;;6.45;5.35;;;;;;;;;;4117031;28;20030;-61
2021/08/13 08:59:16;;;;;;;7.22;5.55;;;;;;;;;;4112248;28;20615;-55
2021/08/13 09:01:18;;;;;;;5.88;4.65;;;;;;;;;;4114382;28;20064;-53
2021/08/13 09:03:20;;;;;;;5.10;4.28;;;;;;;;;;4115262;28;20503;-55
2021/08/13 09:05:22;;;;;;;4.85;4.03;;;;;;;;;;4117342;28;20208;-50
2021/08/13 09:07:24;;;;;;;5.22;3.75;;;;;;;;;;4117252;28;20866;-54
2021/08/13 09:09:26;;;;;;;5.70;4.30;;;;;;;;;;4114871;28;20302;-56
2021/08/13 09:11:28;;;;;;;4.53;3.85;;;;;;;;;;4117564;28;20042;-54
2021/08/13 09:13:30;;;;;;;5.20;3.67;;;;;;;;;;4116491;28;20030;-57
2021/08/13 09:15:33;;;;;;;5.13;3.92;;;;;;;;;;4117333;28;20113;-57
2021/08/13 09:17:35;;;;;;;4.75;3.60;;;;;;;;;;4117111;28;20045;-57
2021/08/13 09:19:41;;;;;;;5.05;3.80;;;;;;;;;;4123612;28;21144;-57
2021/08/13 09:21:42;;;;;;;4.97;4.13;;;;;;;;;;4124050;28;20033;-57
2021/08/13 09:23:45;;;;;;;5.40;3.80;;;;;;;;;;4119269;28;20399;-57
2021/08/13 09:25:47;;;;;;;4.10;3.70;;;;;;;;;;4122590;28;20941;-57
2021/08/13 09:27:49;;;;;;;5.13;3.47;;;;;;;;;;4122167;28;20034;-56
2021/08/13 09:30:17;;;;;;;4.93;3.58;;;21.20;47.50;;;;;;4122595;28;20507;-54
2021/08/13 09:32:28;;;;;;;5.97;3.72;;;20.90;47.40;;;;;;4111098;28;20041;-56
2021/08/13 09:34:31;;;;;;;6.80;4.30;;;20.90;47.70;;;;;;4110751;28;20046;-52
2021/08/13 09:36:33;;;;;;;4.22;3.38;;;20.90;47.80;;;;;;4111163;28;20456;-59
2021/08/13 09:38:36;;;;;;;4.68;3.50;;;20.90;48.00;;;;;;4111009;28;20789;-55
2021/08/13 09:40:39;;;;;;;4.82;3.30;;;20.90;48.00;;;;;;4110945;28;20073;-55
2021/08/13 09:42:42;;;;;;;4.28;3.40;;;20.90;48.10;;;;;;4109783;28;20828;-53
2021/08/13 09:44:44;;;;;;;5.18;3.50;;;20.90;48.20;;;;;;4108997;28;20096;-52
2021/08/13 09:47:02;;;;;;;5.47;3.45;;;20.90;48.10;;;;;;4111657;28;20172;-55
2021/08/13 09:49:16;;;;;;;5.88;3.80;;;20.80;48.10;;;;;;4112731;28;20035;-54
2021/08/13 09:51:34;;;;;;;3.80;3.22;;;20.80;48.10;;;;;;4109959;28;20053;-57
2021/08/13 09:53:36;;;;;;;4.95;3.60;;;20.80;48.10;;;;;;4113669;28;20038;-57
2021/08/13 09:55:39;;;;;;;6.07;3.53;;;20.80;48.10;;;;;;4113463;28;20581;-55
2021/08/13 09:57:44;;;;;;;4.43;3.25;;;20.80;48.30;;;;;;4112011;28;20297;-58
2021/08/13 09:59:59;;;;;;;5.82;3.53;;;20.80;48.40;;;;;;4112232;28;20034;-59
2021/08/13 10:02:14;;;;;;;14.57;3.60;;;20.80;48.40;;;;;;4110997;28;20033;-58
2021/08/13 10:04:18;;;;;;;6.07;3.40;;;20.80;48.50;;;;;;4111105;28;20459;-59
2021/08/13 10:06:31;;;;;;;4.88;3.67;;;20.70;48.50;;;;;;4110449;28;20027;-57
2021/08/13 10:08:46;;;;;;;4.25;3.40;;;20.70;48.50;;;;;;4111011;28;20031;-59
2021/08/13 10:10:48;;;;;;;4.38;3.40;;;20.70;48.60;;;;;;4108031;28;20081;-58
2021/08/13 10:12:50;;;;;;;5.10;3.50;;;20.70;48.50;;;;;;4113724;28;20033;-58
2021/08/13 10:14:57;;;;;;;5.88;3.55;;;20.70;48.50;;;;;;4111597;28;20041;-58
2021/08/13 10:17:12;;;;;;;5.30;3.20;;;20.70;48.60;;;;;;4110885;28;20045;-57
2021/08/13 10:19:14;;;;;;;5.32;3.55;;;20.70;48.60;;;;;;4113000;28;20037;-57
2021/08/13 10:21:17;;;;;;;6.20;3.40;;;20.60;48.60;;;;;;4109403;28;20124;-59
2021/08/13 10:23:20;;;;;;;4.22;3.28;;;20.70;48.70;;;;;;4111976;28;20042;-54
2021/08/13 10:25:23;;;;;;;9.00;3.40;;;20.60;48.90;;;;;;4109177;28;20030;-56
2021/08/13 10:27:25;;;;;;;;;;;20.60;49.00;;;;;;4108907;28;20596;-61
2021/08/13 10:29:29;;;;;;;5.97;3.75;;;20.60;49.00;;;;;;4109073;28;19913;-61
2021/08/13 10:31:32;;;;;;;4.55;3.10;;;20.60;49.20;;;;;;4112211;28;20046;-62
2021/08/13 10:33:34;;;;;;;5.10;3.55;;;20.60;49.20;;;;;;4107567;28;20044;-60
2021/08/13 10:35:56;;;;;;;4.82;3.40;;;20.60;49.10;;;;;;4111428;28;20041;-58
2021/08/13 10:38:00;;;;;;;5.63;4.00;;;20.60;49.20;;;;;;4109670;28;20099;-62
2021/08/13 10:40:02;;;;;;;5.78;3.47;;;20.60;49.10;;;;;;4109330;28;20030;-61
2021/08/13 10:42:06;;;;;;;4.95;3.17;;;20.60;49.20;;;;;;4112017;28;20121;-51
2021/08/13 10:44:12;;;;;;;8.57;3.78;;;20.60;49.20;;;;;;4107777;28;20141;-59
2021/08/13 10:46:16;;;;;;;13.75;3.80;;;20.50;49.50;;;;;;4113349;28;20837;-63
2021/08/13 10:48:27;;;;;;;;;;;20.50;49.80;;;;;;4108593;28;20449;-59
2021/08/13 10:50:31;;;;;;;5.28;3.17;;;20.50;49.90;;;;;;4110118;28;19929;-59
2021/08/13 10:52:38;;;;;;;17.63;3.95;;;20.50;49.90;;;;;;4111764;28;20047;-57
2021/08/13 10:54:41;;;;;;;8.15;3.83;;;20.50;49.80;;;;;;4110737;28;20908;-60
2021/08/13 10:56:45;;;;;;;5.78;3.28;;;20.50;49.70;;;;;;4111225;28;20041;-60